Time;durP1;ratioP1;P1;durP2;ratioP2;P2;SDS_P1;SDS_P2;PMS_P1;PMS_P2;Temp;Humidity;BMP_temperature;BMP_pressure;BME280_temperature;BME280_humidity;BME280_pressure;Samples;Min_cycle;Max_cycle;Signal;HPM_P1;HPM_P2
2023/06/17 00:00:20;;;;;;;11.73;7.70;;;16.30;99.90;;;;;;5013635;28;20105;-90
2023/06/17 00:02:46;;;;;;;15.00;8.73;;;16.30;99.90;;;;;;5015716;28;20138;-90
2023/06/17 00:05:12;;;;;;;11.25;7.88;;;16.30;99.90;;;;;;5013980;28;20041;-91
2023/06/17 00:07:39;;;;;;;11.07;7.97;;;16.30;99.90;;;;;;5013444;28;20080;-90
2023/06/17 00:10:06;;;;;;;17.40;8.90;;;16.40;99.90;;;;;;4996724;28;20037;-91
2023/06/17 00:12:32;;;;;;;12.00;8.45;;;16.40;99.90;;;;;;5029762;28;20080;-90
2023/06/17 00:15:02;;;;;;;15.55;8.75;;;16.40;99.90;;;;;;4997347;28;20072;-90
2023/06/17 00:17:31;;;;;;;11.68;8.27;;;16.30;99.90;;;;;;5029531;28;20343;-90
2023/06/17 00:19:58;;;;;;;13.48;7.70;;;16.40;99.90;;;;;;5030514;28;20095;-90
2023/06/17 00:22:25;;;;;;;13.02;8.43;;;16.30;99.90;;;;;;5029166;28;20489;-92
2023/06/17 00:24:51;;;;;;;12.50;8.35;;;16.40;99.90;;;;;;5030863;28;20604;-90
2023/06/17 00:27:17;;;;;;;11.13;8.52;;;16.30;99.90;;;;;;5012997;28;20045;-91
2023/06/17 00:29:43;;;;;;;15.18;9.27;;;16.30;99.90;;;;;;5029712;28;20397;-90
2023/06/17 00:32:08;;;;;;;14.48;8.43;;;16.30;99.90;;;;;;5030371;28;20037;-90
2023/06/17 00:34:34;;;;;;;15.45;8.68;;;16.40;99.90;;;;;;5012822;28;20045;-90
2023/06/17 00:37:02;;;;;;;18.33;9.27;;;16.40;99.90;;;;;;5029705;28;20587;-90
2023/06/17 00:39:28;;;;;;;15.10;8.70;;;16.40;99.90;;;;;;4995260;28;20509;-92
2023/06/17 00:41:55;;;;;;;12.23;8.23;;;16.40;99.90;;;;;;5033929;28;20045;-89
2023/06/17 00:44:22;;;;;;;15.75;9.07;;;16.40;99.90;;;;;;5033221;28;20046;-89
2023/06/17 00:46:52;;;;;;;16.02;9.27;;;16.50;99.90;;;;;;5030878;28;20407;-91
2023/06/17 00:49:18;;;;;;;16.40;9.38;;;16.50;99.90;;;;;;5033417;28;20452;-91
2023/06/17 00:51:45;;;;;;;13.82;8.77;;;16.50;99.90;;;;;;5031327;28;20148;-91
2023/06/17 00:54:13;;;;;;;11.75;9.05;;;16.50;99.90;;;;;;5016864;28;20069;-89
2023/06/17 00:56:41;;;;;;;18.83;8.80;;;16.50;99.90;;;;;;5031415;28;20048;-90
2023/06/17 00:59:08;;;;;;;15.05;9.63;;;16.40;99.90;;;;;;5033619;28;20135;-91
2023/06/17 01:01:36;;;;;;;15.32;8.90;;;16.40;99.90;;;;;;5031897;28;20187;-91
2023/06/17 01:04:06;;;;;;;18.80;9.23;;;16.40;99.90;;;;;;5032342;28;20090;-90
2023/06/17 01:06:55;;;;;;;13.73;9.23;;;16.40;99.90;;;;;;5032712;28;20489;-90
2023/06/17 01:09:27;;;;;;;16.42;9.15;;;16.40;99.90;;;;;;5015031;28;20045;-90
2023/06/17 01:11:57;;;;;;;13.10;8.02;;;16.40;99.90;;;;;;5015945;28;20133;-91
2023/06/17 01:14:24;;;;;;;13.05;8.05;;;16.40;99.90;;;;;;5014546;28;20049;-91
2023/06/17 01:16:54;;;;;;;15.30;8.75;;;16.40;99.90;;;;;;4999316;28;20186;-90
2023/06/17 01:19:23;;;;;;;12.05;7.13;;;16.50;99.90;;;;;;5017407;28;20037;-91
2023/06/17 01:21:51;;;;;;;16.98;7.90;;;16.40;99.90;;;;;;5031363;28;20052;-89
2023/06/17 01:24:33;;;;;;;14.40;7.80;;;16.40;99.90;;;;;;5020450;28;20063;-92
2023/06/17 01:27:06;;;;;;;14.32;8.10;;;16.30;99.90;;;;;;5024890;28;20364;-91
2023/06/17 01:29:39;;;;;;;13.02;7.72;;;16.30;99.90;;;;;;5033439;28;20041;-89
2023/06/17 01:32:11;;;;;;;14.02;8.00;;;16.30;99.90;;;;;;5015747;28;20108;-90
2023/06/17 01:35:16;;;;;;;11.48;8.25;;;16.30;99.90;;;;;;4999447;28;20106;-91
2023/06/17 01:37:57;;;;;;;14.00;8.30;;;16.30;99.90;;;;;;5016723;28;20045;-91
2023/06/17 01:40:24;;;;;;;11.63;8.05;;;16.30;99.90;;;;;;5015697;28;20131;-91
2023/06/17 01:42:52;;;;;;;16.90;9.13;;;16.20;99.90;;;;;;5031772;28;20099;-91
2023/06/17 01:45:19;;;;;;;14.77;7.85;;;16.20;99.90;;;;;;5015464;28;20063;-91
2023/06/17 01:47:45;;;;;;;11.07;8.30;;;16.20;99.90;;;;;;4998277;28;20045;-91
2023/06/17 01:50:11;;;;;;;16.17;8.40;;;16.20;99.90;;;;;;5017442;28;20051;-91
2023/06/17 01:52:37;;;;;;;18.30;9.20;;;16.20;99.90;;;;;;5017598;28;20389;-89
2023/06/17 01:55:04;;;;;;;14.52;8.35;;;16.20;99.90;;;;;;5000815;28;20132;-90
2023/06/17 01:57:30;;;;;;;15.60;9.55;;;16.20;99.90;;;;;;4999265;28;20450;-90
2023/06/17 01:59:56;;;;;;;13.32;8.77;;;16.10;99.90;;;;;;5031711;28;20052;-90
2023/06/17 02:02:23;;;;;;;14.48;9.73;;;16.20;99.90;;;;;;5016281;28;20477;-90
2023/06/17 02:04:49;;;;;;;15.35;9.63;;;17.20;99.90;;;;;;5014344;28;20521;-91
2023/06/17 02:07:18;;;;;;;16.05;9.50;;;16.10;99.90;;;;;;5015485;28;20053;-89
2023/06/17 02:09:44;;;;;;;13.80;8.70;;;16.10;99.90;;;;;;5013703;28;20521;-91
2023/06/17 02:12:11;;;;;;;11.73;8.30;;;16.10;99.90;;;;;;5031968;28;20045;-91
2023/06/17 02:14:37;;;;;;;12.13;9.35;;;16.10;99.90;;;;;;5031227;28;20045;-91
2023/06/17 02:17:03;;;;;;;17.45;9.55;;;16.10;99.90;;;;;;5031535;28;20098;-90
2023/06/17 02:19:31;;;;;;;13.93;9.38;;;16.10;99.90;;;;;;5015295;28;20076;-91
2023/06/17 02:21:59;;;;;;;14.57;9.88;;;16.00;99.90;;;;;;4997173;28;20045;-91
2023/06/17 02:24:24;;;;;;;12.93;7.70;;;16.00;99.90;;;;;;5014801;28;20055;-92
2023/06/17 02:26:50;;;;;;;18.05;8.45;;;16.00;99.90;;;;;;5030283;28;20421;-92
2023/06/17 02:29:16;;;;;;;16.98;8.90;;;16.10;99.90;;;;;;4999832;28;20072;-91
2023/06/17 02:31:42;;;;;;;12.98;9.55;;;16.00;99.90;;;;;;5014691;28;20417;-91
2023/06/17 02:34:09;;;;;;;18.65;8.73;;;16.10;99.90;;;;;;4997982;28;20075;-91
2023/06/17 02:36:37;;;;;;;11.07;8.30;;;16.10;99.90;;;;;;5015198;28;20044;-91
2023/06/17 02:39:06;;;;;;;14.95;10.38;;;16.10;99.90;;;;;;5030272;28;20485;-91
2023/06/17 02:41:32;;;;;;;15.20;9.48;;;16.10;99.90;;;;;;5015838;28;20351;-91
2023/06/17 02:43:59;;;;;;;16.30;10.55;;;16.10;99.90;;;;;;5013092;28;20056;-90
2023/06/17 02:46:25;;;;;;;16.52;9.63;;;16.10;99.90;;;;;;5014924;28;20110;-93
2023/06/17 02:48:51;;;;;;;17.25;10.20;;;16.10;99.90;;;;;;5030576;28;20045;-91
2023/06/17 02:51:17;;;;;;;13.10;9.35;;;16.00;99.90;;;;;;4998376;28;20047;-92
2023/06/17 02:53:43;;;;;;;16.02;9.95;;;16.00;99.90;;;;;;5014932;28;20792;-91
2023/06/17 02:56:09;;;;;;;15.85;9.88;;;16.00;99.90;;;;;;5029442;28;20128;-93
2023/06/17 02:58:36;;;;;;;16.50;10.18;;;16.00;99.90;;;;;;5034920;28;20049;-91
2023/06/17 03:01:02;;;;;;;16.17;9.85;;;15.90;99.90;;;;;;5019266;28;20048;-90
2023/06/17 03:03:35;;;;;;;17.35;9.93;;;15.90;99.90;;;;;;5038396;28;20053;-91
2023/06/17 03:06:03;;;;;;;21.58;10.27;;;15.90;99.90;;;;;;5039457;28;20091;-89
2023/06/17 03:08:36;;;;;;;16.17;10.70;;;15.90;99.90;;;;;;5017177;28;20537;-89
2023/06/17 03:11:02;;;;;;;18.67;11.77;;;16.00;99.90;;;;;;5032258;28;20044;-90
2023/06/17 03:13:28;;;;;;;19.30;12.07;;;16.00;99.90;;;;;;5030907;28;20048;-90
2023/06/17 03:15:54;;;;;;;18.98;12.07;;;16.00;99.90;;;;;;5000075;28;20044;-90
2023/06/17 03:18:23;;;;;;;19.05;12.85;;;16.00;99.90;;;;;;5030702;28;20041;-91
2023/06/17 03:20:50;;;;;;;17.85;13.55;;;16.00;99.90;;;;;;5014665;28;20052;-90
2023/06/17 03:23:16;;;;;;;20.38;14.88;;;16.00;99.90;;;;;;5014383;28;20045;-90
2023/06/17 03:25:42;;;;;;;19.40;12.77;;;16.00;99.90;;;;;;5029854;28;20057;-91
2023/06/17 03:28:08;;;;;;;21.70;13.35;;;16.00;99.90;;;;;;5030673;28;20059;-92
2023/06/17 03:30:34;;;;;;;17.85;12.52;;;15.90;99.90;;;;;;4996444;28;20044;-90
2023/06/17 03:33:00;;;;;;;21.83;13.68;;;15.90;99.90;;;;;;5014289;28;20055;-91
2023/06/17 03:35:26;;;;;;;20.70;13.30;;;15.90;99.90;;;;;;5012859;28;20045;-91
2023/06/17 03:37:52;;;;;;;18.83;12.82;;;15.90;99.90;;;;;;5029733;28;20040;-90
2023/06/17 03:40:17;;;;;;;23.08;14.05;;;16.00;99.90;;;;;;4996250;28;20048;-88
2023/06/17 03:42:43;;;;;;;21.85;13.13;;;16.00;99.90;;;;;;5029915;28;20062;-89
2023/06/17 03:45:09;;;;;;;19.23;13.88;;;15.90;99.90;;;;;;5029915;28;20053;-89
2023/06/17 03:47:35;;;;;;;19.40;13.13;;;15.90;99.90;;;;;;5012066;28;20056;-90
2023/06/17 03:50:01;;;;;;;16.98;12.55;;;15.90;99.90;;;;;;5031232;28;20049;-91
2023/06/17 03:52:27;;;;;;;21.33;13.63;;;15.90;99.90;;;;;;5029305;28;20488;-91
2023/06/17 03:54:54;;;;;;;24.08;13.38;;;15.90;99.90;;;;;;5013921;28;20048;-90
2023/06/17 03:57:20;;;;;;;20.92;12.07;;;15.90;99.90;;;;;;4981115;28;20041;-90
2023/06/17 03:59:46;;;;;;;16.60;12.48;;;15.90;99.90;;;;;;4996887;28;20036;-90
2023/06/17 04:02:12;;;;;;;18.38;12.48;;;15.90;99.90;;;;;;5030900;28;20045;-89
2023/06/17 04:04:38;;;;;;;16.30;11.85;;;15.90;99.90;;;;;;4995943;28;20379;-90
2023/06/17 04:07:04;;;;;;;16.98;12.40;;;15.90;99.90;;;;;;5029755;28;20045;-91
2023/06/17 04:09:29;;;;;;;15.30;10.60;;;16.00;99.90;;;;;;5029219;28;20049;-89
2023/06/17 04:11:56;;;;;;;15.10;11.50;;;15.90;99.90;;;;;;5032615;28;20402;-90
2023/06/17 04:14:21;;;;;;;15.88;10.27;;;16.00;99.90;;;;;;5014183;28;20052;-91
2023/06/17 04:16:49;;;;;;;16.70;10.38;;;16.00;99.90;;;;;;4997009;28;20045;-91
2023/06/17 04:19:17;;;;;;;15.43;10.55;;;16.00;99.90;;;;;;5000181;28;20045;-91
2023/06/17 04:21:44;;;;;;;18.08;11.98;;;16.00;99.90;;;;;;5016308;28;20122;-88
2023/06/17 04:24:10;;;;;;;18.63;11.93;;;16.00;99.90;;;;;;5017704;28;20510;-92
2023/06/17 04:26:36;;;;;;;12.98;10.30;;;16.00;99.90;;;;;;5016763;28;20048;-90
2023/06/17 04:29:01;;;;;;;16.23;9.82;;;16.00;99.90;;;;;;5003725;28;20080;-91
2023/06/17 04:31:27;;;;;;;16.85;9.80;;;16.00;99.90;;;;;;5022524;28;20053;-91
2023/06/17 04:33:56;;;;;;;16.35;11.05;;;16.00;99.90;;;;;;5017267;28;20040;-90
2023/06/17 04:36:25;;;;;;;18.60;10.50;;;16.00;99.90;;;;;;5037626;28;20048;-92
2023/06/17 04:38:51;;;;;;;20.20;10.63;;;16.00;99.90;;;;;;5022657;28;20115;-91
2023/06/17 04:41:17;;;;;;;16.02;10.77;;;17.80;99.90;;;;;;5017465;28;20091;-92
2023/06/17 04:43:48;;;;;;;16.42;10.07;;;16.00;99.90;;;;;;4999091;28;20056;-91
2023/06/17 04:46:16;;;;;;;18.27;10.88;;;16.00;99.90;;;;;;4992454;28;20076;-91
2023/06/17 04:48:43;;;;;;;16.45;11.10;;;16.00;99.90;;;;;;5014799;28;20067;-93
2023/06/17 04:51:10;;;;;;;16.42;12.32;;;16.00;99.90;;;;;;5013861;28;20053;-93
2023/06/17 04:53:39;;;;;;;23.13;12.13;;;16.00;99.90;;;;;;5031312;28;20056;-93
2023/06/17 04:56:06;;;;;;;22.48;14.52;;;16.00;99.90;;;;;;4999582;28;20041;-92
2023/06/17 04:58:35;;;;;;;17.10;13.52;;;16.00;99.90;;;;;;5033527;28;20569;-91
2023/06/17 05:01:00;;;;;;;15.02;12.45;;;16.00;99.90;;;;;;5032505;28;20105;-91
2023/06/17 05:03:26;;;;;;;23.17;13.25;;;16.10;99.90;;;;;;5017349;28;20128;-92
2023/06/17 05:05:53;;;;;;;22.52;13.63;;;16.10;99.90;;;;;;4983485;28;20486;-91
2023/06/17 05:08:19;;;;;;;19.45;13.23;;;16.10;99.90;;;;;;5015012;28;20493;-90
2023/06/17 05:10:45;;;;;;;21.02;13.60;;;16.20;99.90;;;;;;5016950;28;20052;-94
2023/06/17 05:13:10;;;;;;;19.83;12.50;;;16.20;99.90;;;;;;5015738;28;20525;-94
2023/06/17 05:15:36;;;;;;;18.67;14.18;;;16.20;99.90;;;;;;5004637;28;20051;-93
2023/06/17 05:18:02;;;;;;;20.73;13.73;;;16.20;99.90;;;;;;5001077;28;20104;-94
2023/06/17 05:20:27;;;;;;;19.92;14.65;;;16.20;99.90;;;;;;5022035;28;20037;-94
2023/06/17 05:22:53;;;;;;;18.73;13.40;;;16.30;99.90;;;;;;5023238;28;20081;-92
2023/06/17 05:25:19;;;;;;;19.67;13.57;;;16.30;99.90;;;;;;5034139;28;20512;-91
2023/06/17 05:27:45;;;;;;;19.58;14.60;;;16.20;99.90;;;;;;5016712;28;20080;-91
2023/06/17 05:30:11;;;;;;;19.42;13.25;;;16.20;99.90;;;;;;5014210;28;20041;-92
2023/06/17 05:32:37;;;;;;;20.05;11.93;;;16.20;99.90;;;;;;5032576;28;20135;-93
2023/06/17 05:35:03;;;;;;;22.10;12.95;;;16.20;99.90;;;;;;5032388;28;20087;-93
2023/06/17 05:37:28;;;;;;;22.77;10.82;;;16.20;99.90;;;;;;5000479;28;20037;-93
2023/06/17 05:39:54;;;;;;;16.77;10.00;;;16.20;99.90;;;;;;5015524;28;20037;-95
2023/06/17 05:42:20;;;;;;;12.48;9.13;;;16.30;99.90;;;;;;5016215;28;20108;-95
2023/06/17 05:44:45;;;;;;;13.25;9.73;;;16.30;99.90;;;;;;5033943;28;20053;-92
2023/06/17 05:47:11;;;;;;;11.23;8.93;;;16.30;99.90;;;;;;5014930;28;20498;-93
2023/06/17 05:49:39;;;;;;;14.25;8.93;;;16.40;99.90;;;;;;5017406;28;20041;-94
2023/06/17 05:52:05;;;;;;;18.27;9.00;;;16.40;99.90;;;;;;5015877;28;20041;-93
2023/06/17 05:54:31;;;;;;;14.32;8.40;;;16.40;99.90;;;;;;5016805;28;20076;-91
2023/06/17 05:56:57;;;;;;;14.13;8.70;;;16.40;99.90;;;;;;5015301;28;20494;-93
2023/06/17 05:59:24;;;;;;;11.18;8.52;;;16.40;99.90;;;;;;5031903;28;20132;-92
2023/06/17 06:01:50;;;;;;;15.68;8.40;;;16.40;99.90;;;;;;5017418;28;20045;-93
2023/06/17 06:04:15;;;;;;;14.07;8.60;;;16.40;99.90;;;;;;5021259;28;20497;-91
2023/06/17 06:06:41;;;;;;;11.73;8.23;;;16.50;99.90;;;;;;5026464;28;20032;-91
2023/06/17 06:09:07;;;;;;;11.55;7.38;;;16.50;99.90;;;;;;5036845;28;20041;-92
2023/06/17 06:11:32;;;;;;;12.80;8.10;;;16.60;99.90;;;;;;5022961;28;20044;-92
2023/06/17 06:13:58;;;;;;;16.10;8.73;;;16.60;99.90;;;;;;5020733;28;20483;-94
2023/06/17 06:16:24;;;;;;;12.75;8.43;;;16.60;99.90;;;;;;5000756;28;20049;-94
2023/06/17 06:18:49;;;;;;;17.77;10.25;;;16.70;99.90;;;;;;5032705;28;20517;-93
2023/06/17 06:21:15;;;;;;;18.55;9.15;;;16.70;99.90;;;;;;5018341;28;20048;-94
2023/06/17 06:23:41;;;;;;;13.43;8.57;;;16.80;99.90;;;;;;5017980;28;20040;-93
2023/06/17 06:26:06;;;;;;;16.58;8.82;;;16.80;99.90;;;;;;5025030;28;20052;-94
2023/06/17 06:28:32;;;;;;;14.02;9.10;;;16.90;99.90;;;;;;5034549;28;20041;-94
2023/06/17 06:30:58;;;;;;;15.43;10.15;;;16.90;99.90;;;;;;5033479;28;20041;-92
2023/06/17 06:33:25;;;;;;;16.95;9.88;;;17.00;99.90;;;;;;5034376;28;20037;-95
2023/06/17 06:35:50;;;;;;;16.55;9.52;;;17.00;99.90;;;;;;5017047;28;20045;-93
2023/06/17 06:38:16;;;;;;;18.13;10.75;;;17.10;99.90;;;;;;4999111;28;20122;-95
2023/06/17 06:40:42;;;;;;;16.27;10.52;;;17.10;99.90;;;;;;5016023;28;20350;-92
2023/06/17 06:43:07;;;;;;;14.68;9.32;;;17.20;99.90;;;;;;5031433;28;20113;-94
2023/06/17 06:45:34;;;;;;;13.93;9.32;;;17.20;99.90;;;;;;5032284;28;20111;-92
2023/06/17 06:48:00;;;;;;;16.83;9.65;;;17.30;99.90;;;;;;5015213;28;20063;-92
2023/06/17 06:50:27;;;;;;;19.95;10.52;;;17.40;99.90;;;;;;5015387;28;20127;-94
2023/06/17 06:52:53;;;;;;;13.52;8.57;;;17.50;99.90;;;;;;4998405;28;20041;-93
2023/06/17 06:55:18;;;;;;;12.45;8.77;;;17.60;99.90;;;;;;4997679;28;20044;-95
2023/06/17 06:57:44;;;;;;;15.82;8.95;;;17.80;99.90;;;;;;5037107;28;20157;-93
2023/06/17 07:00:14;;;;;;;14.55;8.23;;;17.90;99.90;;;;;;5014683;28;20134;-91
2023/06/17 07:02:39;;;;;;;13.98;9.13;;;17.90;99.90;;;;;;5014292;28;20119;-91
2023/06/17 07:05:05;;;;;;;13.57;9.60;;;18.00;99.90;;;;;;5013143;28;20144;-92
2023/06/17 07:07:31;;;;;;;15.63;8.82;;;18.10;99.90;;;;;;5013644;28;20057;-92
2023/06/17 07:10:00;;;;;;;15.20;8.57;;;18.20;99.90;;;;;;5014090;28;20047;-93
2023/06/17 07:12:25;;;;;;;10.05;7.93;;;18.30;99.90;;;;;;5014732;28;20040;-92
2023/06/17 07:14:51;;;;;;;16.35;8.93;;;18.30;99.90;;;;;;5032082;28;20490;-92
2023/06/17 07:17:17;;;;;;;18.20;8.93;;;18.50;99.90;;;;;;5014171;28;20087;-95
2023/06/17 07:19:44;;;;;;;14.98;8.77;;;18.60;99.90;;;;;;5015306;28;20041;-92
2023/06/17 07:22:09;;;;;;;10.55;8.07;;;17.90;99.90;;;;;;4995824;28;20493;-89
2023/06/17 07:24:35;;;;;;;13.90;9.82;;;18.70;99.90;;;;;;4995928;28;20103;-90
2023/06/17 07:27:01;;;;;;;11.95;8.80;;;18.80;99.90;;;;;;4996223;28;20094;-88
2023/06/17 07:29:27;;;;;;;12.55;8.13;;;17.70;99.90;;;;;;5013324;28;20501;-91
2023/06/17 07:31:52;;;;;;;13.50;8.43;;;19.00;99.90;;;;;;5012632;28;20052;-88
2023/06/17 07:34:18;;;;;;;10.38;7.50;;;19.20;99.90;;;;;;5027696;28;20120;-91
2023/06/17 07:36:44;;;;;;;11.68;7.68;;;19.50;99.90;;;;;;5040206;28;20044;-90
2023/06/17 07:39:10;;;;;;;11.07;8.25;;;19.20;99.90;;;;;;5029352;28;20099;-88
2023/06/17 07:41:35;;;;;;;12.40;8.55;;;19.20;99.90;;;;;;5042876;28;20091;-93
2023/06/17 07:44:01;;;;;;;10.63;7.93;;;19.70;99.90;;;;;;5037591;28;20057;-88
2023/06/17 07:46:31;;;;;;;11.75;8.10;;;18.90;99.90;;;;;;5014874;28;20048;-92
2023/06/17 07:48:57;;;;;;;13.40;8.55;;;19.70;99.90;;;;;;4997039;28;20413;-89
2023/06/17 07:51:22;;;;;;;14.25;7.60;;;19.80;99.90;;;;;;4997313;28;20037;-90
2023/06/17 07:53:48;;;;;;;13.38;8.63;;;19.80;99.90;;;;;;4996890;28;20133;-91
2023/06/17 07:56:14;;;;;;;12.40;7.50;;;19.80;99.90;;;;;;5013038;28;20045;-93
2023/06/17 07:58:41;;;;;;;16.05;7.95;;;19.90;99.90;;;;;;4998896;28;20045;-89
2023/06/17 08:01:06;;;;;;;10.70;7.18;;;20.00;99.90;;;;;;5016761;28;20502;-93
2023/06/17 08:03:32;;;;;;;10.60;6.80;;;20.10;99.90;;;;;;4998048;28;20044;-91
2023/06/17 08:05:58;;;;;;;12.25;7.15;;;20.30;99.90;;;;;;5016445;28;20055;-90
2023/06/17 08:08:23;;;;;;;9.80;6.15;;;20.50;99.90;;;;;;4999392;28;20067;-90
2023/06/17 08:10:49;;;;;;;9.20;6.25;;;20.50;99.90;;;;;;4999484;28;20048;-89
2023/06/17 08:13:14;;;;;;;9.63;6.30;;;20.50;99.90;;;;;;4994662;28;20048;-89
2023/06/17 08:15:40;;;;;;;10.63;6.10;;;20.60;99.90;;;;;;4997810;28;20057;-87
2023/06/17 08:18:06;;;;;;;9.80;6.47;;;20.70;99.90;;;;;;5014042;28;20484;-90
2023/06/17 08:20:32;;;;;;;7.93;5.80;;;20.80;99.90;;;;;;5018236;28;20045;-95
2023/06/17 08:22:57;;;;;;;9.15;6.15;;;21.00;99.90;;;;;;4999476;28;20051;-90
2023/06/17 08:25:23;;;;;;;9.45;5.90;;;21.00;99.90;;;;;;4998993;28;20069;-94
2023/06/17 08:27:50;;;;;;;13.27;5.95;;;21.30;99.90;;;;;;5001989;28;20056;-92
2023/06/17 08:30:19;;;;;;;10.60;6.65;;;21.60;99.90;;;;;;5000975;28;20041;-88
2023/06/17 08:32:45;;;;;;;13.02;6.15;;;21.70;99.90;;;;;;4998363;28;20044;-89
2023/06/17 08:35:11;;;;;;;8.40;6.18;;;21.80;99.90;;;;;;5031526;28;20048;-91
2023/06/17 08:37:36;;;;;;;12.60;6.60;;;22.00;99.90;;;;;;5016572;28;20140;-91
2023/06/17 08:40:06;;;;;;;7.65;5.30;;;22.10;99.90;;;;;;5012518;28;20095;-89
2023/06/17 08:42:32;;;;;;;8.20;5.45;;;22.20;99.90;;;;;;5012038;28;20099;-87
2023/06/17 08:45:01;;;;;;;7.60;5.50;;;22.40;99.90;;;;;;5012508;28;20082;-89
2023/06/17 08:47:30;;;;;;;8.23;5.55;;;22.60;99.90;;;;;;5027475;28;20714;-89
2023/06/17 08:50:09;;;;;;;9.88;6.25;;;22.70;99.90;;;;;;5031393;28;20080;-87
2023/06/17 08:52:38;;;;;;;12.25;6.85;;;22.60;99.90;;;;;;5032096;28;20060;-91
2023/06/17 08:55:14;;;;;;;11.88;6.07;;;22.50;99.90;;;;;;5031875;28;20045;-88
2023/06/17 08:57:48;;;;;;;8.25;5.78;;;21.70;99.90;;;;;;5048811;28;20053;-91
2023/06/17 09:00:14;;;;;;;8.63;6.10;;;22.50;99.90;;;;;;5029594;28;20182;-89
2023/06/17 09:02:51;;;;;;;7.95;5.40;;;22.70;99.90;;;;;;5031235;28;20105;-92
2023/06/17 09:05:18;;;;;;;6.65;5.47;;;22.80;99.90;;;;;;5029920;28;20056;-94
2023/06/17 09:07:57;;;;;;;12.48;6.47;;;23.00;99.90;;;;;;5041928;28;20049;-95
2023/06/17 09:10:23;;;;;;;10.85;6.30;;;23.20;99.90;;;;;;5066241;28;20061;-94
2023/06/17 09:12:49;;;;;;;8.85;5.45;;;23.40;99.90;;;;;;5051843;28;20037;-91
2023/06/17 09:15:42;;;;;;;13.38;6.15;;;23.50;99.90;;;;;;5062863;28;20056;-91
2023/06/17 09:18:20;;;;;;;8.82;5.50;;;23.60;99.90;;;;;;5052578;28;20056;-94
2023/06/17 09:21:04;;;;;;;8.23;5.45;;;23.50;99.90;;;;;;5056693;28;20091;-96
2023/06/17 09:23:57;;;;;;;10.57;5.47;;;23.60;99.90;;;;;;5043143;28;20098;-91
2023/06/17 09:26:39;;;;;;;7.15;4.80;;;23.70;99.90;;;;;;5017538;28;20088;-89
2023/06/17 09:29:08;;;;;;;11.27;6.30;;;23.70;99.90;;;;;;5030341;28;20045;-89
2023/06/17 09:31:58;;;;;;;8.38;6.20;;;23.80;99.90;;;;;;5030467;28;20053;-91
2023/06/17 09:34:28;;;;;;;10.10;5.72;;;23.90;99.90;;;;;;5049954;28;20061;-95
2023/06/17 09:37:12;;;;;;;10.77;6.00;;;23.80;99.90;;;;;;5043256;28;20053;-96
2023/06/17 09:39:40;;;;;;;10.30;6.00;;;23.80;99.90;;;;;;5002020;28;20057;-96
2023/06/17 09:42:12;;;;;;;9.32;5.70;;;23.80;99.90;;;;;;5021138;28;20084;-93
2023/06/17 09:44:51;;;;;;;9.43;5.20;;;23.90;99.90;;;;;;5022155;28;20060;-94
2023/06/17 09:47:37;;;;;;;8.95;5.32;;;24.00;99.90;;;;;;5052765;28;20049;-96
2023/06/17 09:50:14;;;;;;;8.88;6.03;;;24.10;99.90;;;;;;5001221;28;20047;-94
2023/06/17 09:52:42;;;;;;;8.23;5.43;;;24.20;99.90;;;;;;5017945;28;20049;-95
2023/06/17 09:55:13;;;;;;;;;;;24.20;99.90;;;;;;5035421;28;20049;-93
2023/06/17 09:57:55;;;;;;;11.35;5.95;;;24.40;99.90;;;;;;5040282;28;20000;-94
2023/06/17 10:00:27;;;;;;;10.75;5.72;;;24.50;99.90;;;;;;5031248;28;20114;-93
2023/06/17 10:02:53;;;;;;;12.63;5.72;;;24.60;99.90;;;;;;5033369;28;20053;-91
2023/06/17 10:05:21;;;;;;;13.32;5.80;;;24.70;99.90;;;;;;5005036;28;20186;-92
2023/06/17 10:08:02;;;;;;;9.15;5.75;;;24.80;99.90;;;;;;5053398;28;20057;-96
2023/06/17 10:10:29;;;;;;;8.82;4.90;;;24.90;99.90;;;;;;5032270;28;20071;-90
2023/06/17 10:13:09;;;;;;;10.20;5.18;;;25.00;99.90;;;;;;5029898;28;20588;-88
2023/06/17 10:15:37;;;;;;;8.05;5.80;;;25.30;99.90;;;;;;5046282;28;20063;-88
2023/06/17 10:18:07;;;;;;;9.10;5.60;;;25.40;99.90;;;;;;5029183;28;20048;-87
2023/06/17 10:20:35;;;;;;;7.70;5.28;;;25.50;99.90;;;;;;5014058;28;20569;-90
2023/06/17 10:23:04;;;;;;;6.90;5.80;;;25.70;99.90;;;;;;5028379;28;20037;-93
2023/06/17 10:25:30;;;;;;;10.32;5.70;;;25.80;99.90;;;;;;5017615;28;20037;-92
2023/06/17 10:28:04;;;;;;;10.30;6.03;;;25.90;99.90;;;;;;5004030;28;20465;-96
2023/06/17 10:31:04;;;;;;;8.70;5.60;;;25.90;99.60;;;;;;5038969;28;20053;-96
2023/06/17 10:33:35;;;;;;;10.10;5.30;;;26.00;98.80;;;;;;5034930;28;20455;-95
2023/06/17 10:36:09;;;;;;;8.07;5.25;;;26.20;99.20;;;;;;5002037;28;20060;-96
2023/06/17 10:38:39;;;;;;;7.82;5.10;;;26.30;98.70;;;;;;5017695;28;20083;-95
2023/06/17 10:41:05;;;;;;;5.82;4.32;;;26.20;98.40;;;;;;4999535;28;20056;-95
2023/06/17 10:43:37;;;;;;;7.95;5.07;;;26.20;98.00;;;;;;5041770;28;20041;-95
2023/06/17 10:46:07;;;;;;;8.20;5.10;;;26.20;97.60;;;;;;5029251;28;20120;-89
2023/06/17 10:48:34;;;;;;;9.57;5.03;;;26.40;97.60;;;;;;5006566;28;20045;-92
2023/06/17 10:51:14;;;;;;;13.75;5.63;;;25.10;97.10;;;;;;5016735;28;20063;-91
2023/06/17 10:53:49;;;;;;;6.63;4.85;;;26.70;97.30;;;;;;5031428;28;20052;-91
2023/06/17 10:56:19;;;;;;;8.70;4.95;;;26.70;97.10;;;;;;5012514;28;20088;-94
2023/06/17 10:58:54;;;;;;;7.68;4.68;;;26.60;96.90;;;;;;5016124;28;20037;-91
2023/06/17 11:01:21;;;;;;;11.15;5.55;;;26.70;96.70;;;;;;5001492;28;20037;-93
2023/06/17 11:03:46;;;;;;;9.10;5.35;;;26.70;96.30;;;;;;5012704;28;20061;-91
2023/06/17 11:06:26;;;;;;;7.00;4.32;;;26.70;96.30;;;;;;5001220;28;20055;-96
2023/06/17 11:08:52;;;;;;;7.22;4.55;;;26.80;96.40;;;;;;4999031;28;20045;-95
2023/06/17 11:11:18;;;;;;;9.60;4.47;;;26.90;96.10;;;;;;5020698;28;20051;-92
2023/06/17 11:13:51;;;;;;;10.25;4.88;;;26.90;95.80;;;;;;5015446;28;20089;-93
2023/06/17 11:16:17;;;;;;;8.52;4.90;;;26.90;95.00;;;;;;5028700;28;20067;-94
2023/06/17 11:18:47;;;;;;;8.90;4.47;;;26.90;95.20;;;;;;5014821;28;20052;-93
2023/06/17 11:21:15;;;;;;;10.27;5.05;;;26.90;95.30;;;;;;5014641;28;20083;-94
2023/06/17 11:23:46;;;;;;;5.85;4.20;;;26.90;95.10;;;;;;4998656;28;20567;-94
2023/06/17 11:26:20;;;;;;;10.23;5.13;;;27.00;94.50;;;;;;5031076;28;20097;-96
2023/06/17 11:28:50;;;;;;;12.10;4.95;;;27.00;94.80;;;;;;5012864;28;20063;-94
2023/06/17 11:31:16;;;;;;;12.18;5.47;;;26.90;94.80;;;;;;5014042;28;20143;-95
2023/06/17 11:33:43;;;;;;;8.40;4.47;;;27.00;94.90;;;;;;4997935;28;20049;-94
2023/06/17 11:36:13;;;;;;;6.70;4.70;;;27.00;94.70;;;;;;5030025;28;20369;-93
2023/06/17 11:38:42;;;;;;;7.60;4.03;;;27.10;94.60;;;;;;5014884;28;20084;-95
2023/06/17 11:41:10;;;;;;;8.25;4.85;;;27.10;94.50;;;;;;5014603;28;20037;-95
2023/06/17 11:43:37;;;;;;;7.47;3.97;;;27.20;94.40;;;;;;5029377;28;20178;-92
2023/06/17 11:46:08;;;;;;;6.70;4.65;;;27.30;94.50;;;;;;5014423;28;20143;-92
2023/06/17 11:48:39;;;;;;;12.35;5.40;;;27.40;94.50;;;;;;5048128;28;20053;-96
2023/06/17 11:51:15;;;;;;;7.68;4.55;;;27.50;94.20;;;;;;5014571;28;20057;-93
2023/06/17 11:53:47;;;;;;;7.40;4.43;;;27.70;94.00;;;;;;5030842;28;20209;-91
2023/06/17 11:56:15;;;;;;;5.95;4.28;;;27.70;93.70;;;;;;5010469;28;20056;-93
2023/06/17 11:58:47;;;;;;;4.60;3.60;;;27.70;93.40;;;;;;5015016;28;20045;-94
2023/06/17 12:01:14;;;;;;;8.57;4.72;;;27.80;93.20;;;;;;5010725;28;20556;-95
2023/06/17 12:03:46;;;;;;;7.22;4.50;;;27.00;92.50;;;;;;5015086;28;20056;-94
2023/06/17 12:06:19;;;;;;;7.30;4.80;;;27.20;92.20;;;;;;5029399;28;20088;-93
2023/06/17 12:08:58;;;;;;;7.50;4.60;;;28.00;92.10;;;;;;4996178;28;20056;-95
2023/06/17 12:11:37;;;;;;;9.23;6.47;;;27.90;92.20;;;;;;5030741;28;20072;-91
2023/06/17 12:14:12;;;;;;;8.35;4.40;;;28.00;92.30;;;;;;5011826;28;20049;-95
2023/06/17 12:16:43;;;;;;;7.45;4.70;;;28.10;92.40;;;;;;5015928;28;20052;-90
2023/06/17 12:19:37;;;;;;;7.53;4.70;;;28.20;91.90;;;;;;4996474;28;20044;-91
2023/06/17 12:25:52;;;;;;;6.78;4.63;;;27.60;91.20;;;;;;5053641;28;20533;-90
2023/06/17 12:28:22;;;;;;;8.63;5.03;;;28.10;92.00;;;;;;5031907;28;20048;-96
2023/06/17 12:30:48;;;;;;;10.27;5.25;;;28.00;92.10;;;;;;5006488;28;20033;-92
2023/06/17 12:33:16;;;;;;;6.07;4.57;;;28.10;92.00;;;;;;5018118;28;20068;-96
2023/06/17 12:35:42;;;;;;;7.75;4.72;;;28.40;91.90;;;;;;5000737;28;20045;-95
2023/06/17 12:38:20;;;;;;;9.45;4.90;;;28.30;91.90;;;;;;5037140;28;20045;-95
2023/06/17 12:40:47;;;;;;;9.70;4.82;;;28.20;91.80;;;;;;5008112;28;20048;-93
2023/06/17 12:43:32;;;;;;;7.45;4.43;;;28.10;91.60;;;;;;5047150;28;20039;-95
2023/06/17 12:46:05;;;;;;;7.30;5.47;;;28.10;91.80;;;;;;5006451;28;20065;-93
2023/06/17 12:48:43;;;;;;;11.15;5.00;;;28.10;91.70;;;;;;5018908;28;20053;-91